JAL698 RJFM-RJTT
Flight info
| Callsign | JAL698 |
|---|---|
| Flight time | N/A |
| Altitude | 33000 |
| Route | MADOG M750 BILLY Y21 AKSEL |
| Aircraft | B738/M-SDE2E3FGHIRWXY/LB1 |
Departure
| Time | N/A |
|---|---|
| Airport | Miyazaki Airport (RJFM) |
Arrival
| Time | 2026-05-01 13:42 |
|---|---|
| Airport | Tokyo Haneda International Airport (RJTT) |
| Time | Latitude | Longitude | Altitude | Speed | Heading |
|---|---|---|---|---|---|
| 2026-05-01 13:07 | 33.85360 | 138.15037 | 32665 ft | 517 kts | 56° |
| 2026-05-01 13:07 | 33.87074 | 138.18829 | 32668 ft | 519 kts | 56° |
| 2026-05-01 13:08 | 33.90520 | 138.26460 | 32664 ft | 519 kts | 56° |
| 2026-05-01 13:08 | 33.93937 | 138.34078 | 32666 ft | 518 kts | 57° |
| 2026-05-01 13:09 | 33.97346 | 138.41736 | 32662 ft | 522 kts | 57° |
| 2026-05-01 13:09 | 34.00761 | 138.49440 | 32665 ft | 522 kts | 57° |
| 2026-05-01 13:10 | 34.04168 | 138.57143 | 32655 ft | 521 kts | 57° |
| 2026-05-01 13:10 | 34.07544 | 138.64786 | 32646 ft | 520 kts | 57° |
| 2026-05-01 13:11 | 34.10939 | 138.72478 | 32645 ft | 522 kts | 58° |
| 2026-05-01 13:11 | 34.12637 | 138.76331 | 32527 ft | 518 kts | 58° |
| 2026-05-01 13:11 | 34.14319 | 138.80156 | 32059 ft | 516 kts | 58° |
| 2026-05-01 13:11 | 34.15991 | 138.83963 | 31379 ft | 519 kts | 58° |
| 2026-05-01 13:12 | 34.17697 | 138.87848 | 30588 ft | 524 kts | 58° |
| 2026-05-01 13:12 | 34.19375 | 138.91670 | 29937 ft | 524 kts | 58° |
| 2026-05-01 13:12 | 34.21078 | 138.95555 | 29246 ft | 525 kts | 58° |
| 2026-05-01 13:12 | 34.22785 | 138.99457 | 28521 ft | 525 kts | 58° |
| 2026-05-01 13:13 | 34.24486 | 139.03346 | 27789 ft | 525 kts | 58° |
| 2026-05-01 13:13 | 34.26173 | 139.07210 | 27049 ft | 526 kts | 59° |
| 2026-05-01 13:13 | 34.27874 | 139.11113 | 26304 ft | 526 kts | 59° |
| 2026-05-01 13:13 | 34.29504 | 139.15082 | 25567 ft | 527 kts | 62° |
| 2026-05-01 13:14 | 34.31000 | 139.19106 | 24800 ft | 528 kts | 64° |
| 2026-05-01 13:14 | 34.32421 | 139.23190 | 24045 ft | 528 kts | 65° |
| 2026-05-01 13:14 | 34.33808 | 139.27319 | 23289 ft | 527 kts | 66° |
| 2026-05-01 13:14 | 34.35158 | 139.31383 | 22518 ft | 526 kts | 66° |
| 2026-05-01 13:15 | 34.36523 | 139.35496 | 21764 ft | 522 kts | 66° |
| 2026-05-01 13:15 | 34.37857 | 139.39500 | 21011 ft | 515 kts | 66° |
| 2026-05-01 13:15 | 34.39198 | 139.43500 | 20254 ft | 504 kts | 66° |
| 2026-05-01 13:15 | 34.40492 | 139.47337 | 19530 ft | 493 kts | 65° |
| 2026-05-01 13:16 | 34.41777 | 139.51135 | 18822 ft | 483 kts | 65° |
| 2026-05-01 13:16 | 34.43041 | 139.54854 | 18117 ft | 473 kts | 65° |
| 2026-05-01 13:16 | 34.44276 | 139.58484 | 17435 ft | 463 kts | 65° |
| 2026-05-01 13:17 | 34.47946 | 139.68881 | 15466 ft | 433 kts | 59° |
| 2026-05-01 13:17 | 34.49585 | 139.71826 | 14868 ft | 416 kts | 43° |
| 2026-05-01 13:18 | 34.54140 | 139.75447 | 13668 ft | 381 kts | 15° |
| 2026-05-01 13:18 | 34.56581 | 139.76601 | 13095 ft | 372 kts | 15° |
| 2026-05-01 13:18 | 34.58881 | 139.77956 | 12530 ft | 371 kts | 25° |
| 2026-05-01 13:18 | 34.60974 | 139.79770 | 12102 ft | 365 kts | 34° |
| 2026-05-01 13:19 | 34.62877 | 139.81728 | 12040 ft | 351 kts | 34° |
| 2026-05-01 13:19 | 34.64787 | 139.83514 | 12033 ft | 337 kts | 28° |
| 2026-05-01 13:19 | 34.68712 | 139.85922 | 12010 ft | 301 kts | 12° |
| 2026-05-01 13:20 | 34.70715 | 139.86717 | 11766 ft | 302 kts | 8° |
| 2026-05-01 13:20 | 34.72731 | 139.87404 | 11395 ft | 300 kts | 7° |
| 2026-05-01 13:20 | 34.74732 | 139.88045 | 11029 ft | 299 kts | 6° |
| 2026-05-01 13:21 | 34.78758 | 139.89334 | 10283 ft | 297 kts | 7° |
| 2026-05-01 13:21 | 34.80730 | 139.89977 | 9916 ft | 295 kts | 7° |
| 2026-05-01 13:21 | 34.82712 | 139.90625 | 9542 ft | 292 kts | 7° |
| 2026-05-01 13:21 | 34.84678 | 139.91270 | 9166 ft | 290 kts | 7° |
| 2026-05-01 13:22 | 34.86614 | 139.91905 | 8801 ft | 288 kts | 7° |
| 2026-05-01 13:22 | 34.88533 | 139.92574 | 8432 ft | 289 kts | 12° |
| 2026-05-01 13:22 | 34.90358 | 139.93675 | 8087 ft | 295 kts | 30° |
| 2026-05-01 13:22 | 34.91929 | 139.95256 | 8024 ft | 290 kts | 37° |
| 2026-05-01 13:23 | 34.93420 | 139.96935 | 8029 ft | 296 kts | 38° |
| 2026-05-01 13:23 | 34.94936 | 139.98621 | 8024 ft | 295 kts | 37° |
| 2026-05-01 13:23 | 34.96468 | 140.00270 | 8015 ft | 287 kts | 36° |
| 2026-05-01 13:23 | 34.97968 | 140.01739 | 8009 ft | 268 kts | 25° |
| 2026-05-01 13:24 | 34.99629 | 140.02647 | 8012 ft | 257 kts | 11° |
| 2026-05-01 13:24 | 35.01336 | 140.03305 | 8025 ft | 256 kts | 10° |
| 2026-05-01 13:24 | 35.03030 | 140.04033 | 8001 ft | 258 kts | 13° |
| 2026-05-01 13:25 | 35.06361 | 140.05730 | 7997 ft | 262 kts | 16° |
| 2026-05-01 13:25 | 35.08035 | 140.06616 | 7996 ft | 261 kts | 16° |
| 2026-05-01 13:25 | 35.09691 | 140.07487 | 7995 ft | 260 kts | 15° |
| 2026-05-01 13:25 | 35.11367 | 140.08362 | 7991 ft | 261 kts | 15° |
| 2026-05-01 13:26 | 35.13020 | 140.09224 | 7988 ft | 259 kts | 16° |
| 2026-05-01 13:26 | 35.14670 | 140.10088 | 7988 ft | 259 kts | 16° |
| 2026-05-01 13:26 | 35.16348 | 140.10965 | 7995 ft | 261 kts | 15° |
| 2026-05-01 13:26 | 35.18015 | 140.11836 | 7999 ft | 260 kts | 16° |
| 2026-05-01 13:27 | 35.19677 | 140.12707 | 7885 ft | 261 kts | 16° |
| 2026-05-01 13:27 | 35.21353 | 140.13586 | 7692 ft | 261 kts | 16° |
| 2026-05-01 13:27 | 35.24669 | 140.15326 | 7324 ft | 259 kts | 16° |
| 2026-05-01 13:28 | 35.27960 | 140.17055 | 7007 ft | 254 kts | 16° |
| 2026-05-01 13:28 | 35.29585 | 140.17889 | 6989 ft | 254 kts | 12° |
| 2026-05-01 13:29 | 35.32986 | 140.18251 | 6985 ft | 242 kts | 350° |
| 2026-05-01 13:29 | 35.36372 | 140.18437 | 6985 ft | 245 kts | 357° |
| 2026-05-01 13:30 | 35.43074 | 140.19249 | 6979 ft | 228 kts | 356° |
| 2026-05-01 13:31 | 35.46392 | 140.19606 | 6977 ft | 243 kts | 356° |
| 2026-05-01 13:31 | 35.51468 | 140.20209 | 6970 ft | 245 kts | 357° |
| 2026-05-01 13:32 | 35.54777 | 140.20035 | 6815 ft | 231 kts | 336° |
| 2026-05-01 13:33 | 35.58921 | 140.17828 | 6124 ft | 202 kts | 305° |
| 2026-05-01 13:33 | 35.60153 | 140.14890 | 5791 ft | 192 kts | 282° |
| 2026-05-01 13:34 | 35.60450 | 140.11772 | 5463 ft | 175 kts | 269° |
| 2026-05-01 13:34 | 35.60459 | 140.08890 | 4957 ft | 168 kts | 268° |
| 2026-05-01 13:35 | 35.60456 | 140.06006 | 4302 ft | 169 kts | 269° |
| 2026-05-01 13:35 | 35.60453 | 140.04588 | 4038 ft | 165 kts | 269° |
| 2026-05-01 13:35 | 35.60448 | 140.01820 | 3517 ft | 161 kts | 269° |
| 2026-05-01 13:36 | 35.60444 | 140.00464 | 3396 ft | 154 kts | 270° |
| 2026-05-01 13:36 | 35.60442 | 139.99135 | 3438 ft | 161 kts | 270° |
| 2026-05-01 13:36 | 35.60453 | 139.96387 | 3047 ft | 158 kts | 271° |
| 2026-05-01 13:37 | 35.60451 | 139.95067 | 2813 ft | 149 kts | 269° |
| 2026-05-01 13:37 | 35.60405 | 139.93881 | 2683 ft | 129 kts | 267° |
| 2026-05-01 13:37 | 35.60389 | 139.92813 | 2672 ft | 123 kts | 271° |
| 2026-05-01 13:37 | 35.60442 | 139.91759 | 2539 ft | 124 kts | 273° |
| 2026-05-01 13:38 | 35.60437 | 139.89665 | 2099 ft | 122 kts | 269° |
| 2026-05-01 13:38 | 35.60430 | 139.88615 | 1866 ft | 124 kts | 269° |
| 2026-05-01 13:38 | 35.60402 | 139.87547 | 1624 ft | 128 kts | 268° |
| 2026-05-01 13:39 | 35.60358 | 139.86464 | 1439 ft | 127 kts | 267° |
| 2026-05-01 13:39 | 35.60324 | 139.85355 | 1329 ft | 130 kts | 269° |
| 2026-05-01 13:39 | 35.60285 | 139.84238 | 1228 ft | 133 kts | 265° |
| 2026-05-01 13:39 | 35.60183 | 139.83101 | 1045 ft | 133 kts | 264° |
| 2026-05-01 13:40 | 35.59984 | 139.82008 | 920 ft | 133 kts | 249° |
| 2026-05-01 13:40 | 35.59582 | 139.80974 | 784 ft | 133 kts | 242° |
| 2026-05-01 13:40 | 35.59128 | 139.79985 | 573 ft | 133 kts | 238° |
| 2026-05-01 13:40 | 35.58446 | 139.79219 | 434 ft | 134 kts | 217° |
| 2026-05-01 13:41 | 35.57709 | 139.78537 | 288 ft | 131 kts | 218° |
| 2026-05-01 13:41 | 35.56956 | 139.77895 | 131 ft | 134 kts | 215° |
| 2026-05-01 13:41 | 35.56185 | 139.77241 | 21 ft | 128 kts | 216° |
| 2026-05-01 13:41 | 35.55603 | 139.76729 | 22 ft | 66 kts | 215° |
| 2026-05-01 13:42 | 35.55269 | 139.76605 | 24 ft | 32 kts | 187° |
| 2026-05-01 13:42 | 35.55219 | 139.76599 | 24 ft | 0 kts | 185° |
| 2026-05-01 13:42 | 35.55218 | 139.76599 | 24 ft | 0 kts | 185° |
| 2026-05-01 13:42 | 35.55208 | 139.76599 | 24 ft | 1 kts | 182° |
| 2026-05-01 13:43 | 35.55166 | 139.76608 | 24 ft | 13 kts | 151° |
| 2026-05-01 13:43 | 35.55170 | 139.76743 | 24 ft | 18 kts | 62° |
| 2026-05-01 13:43 | 35.55238 | 139.76889 | 24 ft | 21 kts | 59° |
| 2026-05-01 13:43 | 35.55317 | 139.77060 | 25 ft | 20 kts | 61° |
| 2026-05-01 13:44 | 35.55253 | 139.77181 | 26 ft | 20 kts | 151° |
| 2026-05-01 13:44 | 35.55115 | 139.77278 | 26 ft | 25 kts | 150° |
| 2026-05-01 13:44 | 35.54951 | 139.77396 | 25 ft | 28 kts | 149° |
| 2026-05-01 13:44 | 35.54781 | 139.77516 | 23 ft | 26 kts | 150° |
| 2026-05-01 13:45 | 35.54765 | 139.77679 | 23 ft | 21 kts | 64° |
| 2026-05-01 13:45 | 35.54841 | 139.77834 | 21 ft | 21 kts | 59° |
| 2026-05-01 13:45 | 35.54906 | 139.77963 | 24 ft | 10 kts | 58° |
| 2026-05-01 13:45 | 35.54917 | 139.77986 | 24 ft | 1 kts | 58° |